Bullock, North Carolina
Current Conditions -  °F | °C
As of 5:55 PM on Wednesday 26 Nov 2014 (Local Time) from KW63 Reporting Station
Overcast Overcast  
Wind Chill: 37°   Ceiling: 1000
Heat Index: 37°   Visibility: 10mi
Dew Point: 37°   Wind: 3mph
Humidity: 100%   Direction: 340°NNW
Pressure: 30"   Gusts: NA
Location:  36.49°N, 78.55°W
Report Text: KW63 262255Z AUTO 34003KT 10SM BKN010 OVC026 03/03 A3000 RMK AO1
Loading
Personal Weather Stations






























Interactive Weather Map New forecast layout! Learn more

10-Day Weather Forecast

Advertisements
Track Severe Weather on mobile